sensor_id;sensor_type;location;lat;lon;timestamp;pressure;altitude;pressure_sealevel;temperature;humidity
72921;BME280;61064;51.654;5.476;2023-05-20T00:02:25;102433.22;;;13.79;56.93
72921;BME280;61064;51.654;5.476;2023-05-20T00:04:51;102435.88;;;13.78;57.05
72921;BME280;61064;51.654;5.476;2023-05-20T00:07:16;102428.69;;;13.75;57.34
72921;BME280;61064;51.654;5.476;2023-05-20T00:09:41;102436.66;;;13.72;57.49
72921;BME280;61064;51.654;5.476;2023-05-20T00:12:07;102421.47;;;13.69;57.58
72921;BME280;61064;51.654;5.476;2023-05-20T00:14:32;102427.59;;;13.65;57.66
72921;BME280;61064;51.654;5.476;2023-05-20T00:16:58;102426.72;;;13.65;57.73
72921;BME280;61064;51.654;5.476;2023-05-20T00:19:23;102429.38;;;13.63;57.85
72921;BME280;61064;51.654;5.476;2023-05-20T00:21:48;102425.72;;;13.60;57.92
72921;BME280;61064;51.654;5.476;2023-05-20T00:24:14;102434.56;;;13.56;58.09
72921;BME280;61064;51.654;5.476;2023-05-20T00:26:39;102426.53;;;13.56;58.33
72921;BME280;61064;51.654;5.476;2023-05-20T00:29:05;102428.22;;;13.51;58.26
72921;BME280;61064;51.654;5.476;2023-05-20T00:31:30;102429.94;;;13.47;58.40
72921;BME280;61064;51.654;5.476;2023-05-20T00:33:55;102430.72;;;13.43;58.61
72921;BME280;61064;51.654;5.476;2023-05-20T00:36:21;102435.06;;;13.37;58.68
72921;BME280;61064;51.654;5.476;2023-05-20T00:38:46;102431.41;;;13.31;58.98
72921;BME280;61064;51.654;5.476;2023-05-20T00:41:11;102422.38;;;13.26;59.00
72921;BME280;61064;51.654;5.476;2023-05-20T00:43:37;102437.53;;;13.26;59.19
72921;BME280;61064;51.654;5.476;2023-05-20T00:46:02;102424.91;;;13.19;59.21
72921;BME280;61064;51.654;5.476;2023-05-20T00:48:38;102423.91;;;13.15;59.53
72921;BME280;61064;51.654;5.476;2023-05-20T00:51:04;102428.31;;;13.12;59.60
72921;BME280;61064;51.654;5.476;2023-05-20T00:53:32;102422.84;;;13.07;59.73
72921;BME280;61064;51.654;5.476;2023-05-20T00:55:58;102421.03;;;13.06;59.95
72921;BME280;61064;51.654;5.476;2023-05-20T00:58:24;102420.06;;;13.03;60.02
72921;BME280;61064;51.654;5.476;2023-05-20T01:00:49;102414.72;;;13.03;60.06
72921;BME280;61064;51.654;5.476;2023-05-20T01:03:16;102411.97;;;13.00;60.26
72921;BME280;61064;51.654;5.476;2023-05-20T01:05:41;102417.31;;;12.98;60.29
72921;BME280;61064;51.654;5.476;2023-05-20T01:08:07;102408.34;;;12.96;60.36
72921;BME280;61064;51.654;5.476;2023-05-20T01:10:34;102422.59;;;12.97;60.60
72921;BME280;61064;51.654;5.476;2023-05-20T01:13:04;102415.34;;;12.91;60.68
72921;BME280;61064;51.654;5.476;2023-05-20T01:15:33;102411.66;;;12.84;60.66
72921;BME280;61064;51.654;5.476;2023-05-20T01:18:01;102414.28;;;12.83;60.99
72921;BME280;61064;51.654;5.476;2023-05-20T01:20:30;102419.59;;;12.81;60.95
72921;BME280;61064;51.654;5.476;2023-05-20T01:22:56;102415.13;;;12.80;60.78
72921;BME280;61064;51.654;5.476;2023-05-20T01:25:23;102407.88;;;12.76;61.34
72921;BME280;61064;51.654;5.476;2023-05-20T01:27:49;102413.22;;;12.76;61.27
72921;BME280;61064;51.654;5.476;2023-05-20T01:30:16;102406.97;;;12.74;61.29
72921;BME280;61064;51.654;5.476;2023-05-20T01:32:48;102406.94;;;12.73;61.59
72921;BME280;61064;51.654;5.476;2023-05-20T01:35:17;102406.88;;;12.70;61.58
72921;BME280;61064;51.654;5.476;2023-05-20T01:37:44;102402.41;;;12.69;61.55
72921;BME280;61064;51.654;5.476;2023-05-20T01:40:13;102397.91;;;12.68;61.79
72921;BME280;61064;51.654;5.476;2023-05-20T01:42:41;102399.63;;;12.64;61.81
72921;BME280;61064;51.654;5.476;2023-05-20T01:45:07;102406.72;;;12.64;61.76
72921;BME280;61064;51.654;5.476;2023-05-20T01:47:33;102399.53;;;12.61;61.89
72921;BME280;61064;51.654;5.476;2023-05-20T01:49:58;102398.63;;;12.59;61.87
72921;BME280;61064;51.654;5.476;2023-05-20T01:52:23;102398.59;;;12.58;62.04
72921;BME280;61064;51.654;5.476;2023-05-20T01:54:49;102394.97;;;12.56;62.11
72921;BME280;61064;51.654;5.476;2023-05-20T01:57:21;102394.91;;;12.54;62.42
72921;BME280;61064;51.654;5.476;2023-05-20T01:59:46;102399.28;;;12.50;62.32
72921;BME280;61064;51.654;5.476;2023-05-20T02:02:12;102395.69;;;12.48;62.54
72921;BME280;61064;51.654;5.476;2023-05-20T02:04:38;102394.75;;;12.46;62.73
72921;BME280;61064;51.654;5.476;2023-05-20T02:07:04;102390.19;;;12.41;62.65
72921;BME280;61064;51.654;5.476;2023-05-20T02:09:29;102383.88;;;12.39;62.74
72921;BME280;61064;51.654;5.476;2023-05-20T02:11:55;102396.34;;;12.38;63.15
72921;BME280;61064;51.654;5.476;2023-05-20T02:14:20;102389.06;;;12.33;62.80
72921;BME280;61064;51.654;5.476;2023-05-20T02:16:45;102401.53;;;12.32;63.02
72921;BME280;61064;51.654;5.476;2023-05-20T02:19:11;102401.41;;;12.28;63.22
72921;BME280;61064;51.654;5.476;2023-05-20T02:21:40;102396.97;;;12.28;63.33
72921;BME280;61064;51.654;5.476;2023-05-20T02:24:06;102397.84;;;12.27;63.41
72921;BME280;61064;51.654;5.476;2023-05-20T02:26:32;102393.41;;;12.28;63.45
72921;BME280;61064;51.654;5.476;2023-05-20T02:28:58;102388.94;;;12.27;63.48
72921;BME280;61064;51.654;5.476;2023-05-20T02:31:24;102383.59;;;12.27;63.66
72921;BME280;61064;51.654;5.476;2023-05-20T02:33:50;102379.97;;;12.23;63.79
72921;BME280;61064;51.654;5.476;2023-05-20T02:36:15;102374.63;;;12.23;64.00
72921;BME280;61064;51.654;5.476;2023-05-20T02:38:41;102377.22;;;12.20;63.92
72921;BME280;61064;51.654;5.476;2023-05-20T02:41:07;102380.72;;;12.18;63.84
72921;BME280;61064;51.654;5.476;2023-05-20T02:43:32;102369.03;;;12.13;63.78
72921;BME280;61064;51.654;5.476;2023-05-20T02:45:58;102373.53;;;12.15;64.20
72921;BME280;61064;51.654;5.476;2023-05-20T02:48:23;102379.75;;;12.14;63.91
72921;BME280;61064;51.654;5.476;2023-05-20T02:50:49;102377.03;;;12.13;64.25
72921;BME280;61064;51.654;5.476;2023-05-20T02:53:14;102384.06;;;12.09;64.31
72921;BME280;61064;51.654;5.476;2023-05-20T02:55:40;102371.59;;;12.08;64.47
72921;BME280;61064;51.654;5.476;2023-05-20T02:58:05;102376.84;;;12.05;64.44
72921;BME280;61064;51.654;5.476;2023-05-20T03:00:30;102379.50;;;12.03;64.61
72921;BME280;61064;51.654;5.476;2023-05-20T03:02:56;102374.97;;;12.01;64.73
72921;BME280;61064;51.654;5.476;2023-05-20T03:05:23;102374.00;;;11.99;64.80
72921;BME280;61064;51.654;5.476;2023-05-20T03:07:48;102377.59;;;11.99;64.98
72921;BME280;61064;51.654;5.476;2023-05-20T03:10:14;102384.63;;;11.96;65.02
72921;BME280;61064;51.654;5.476;2023-05-20T03:12:40;102377.44;;;11.93;65.18
72921;BME280;61064;51.654;5.476;2023-05-20T03:15:06;102371.16;;;11.91;65.44
72921;BME280;61064;51.654;5.476;2023-05-20T03:17:31;102374.75;;;11.92;65.53
72921;BME280;61064;51.654;5.476;2023-05-20T03:19:57;102372.94;;;11.91;65.48
72921;BME280;61064;51.654;5.476;2023-05-20T03:22:22;102373.75;;;11.88;65.71
72921;BME280;61064;51.654;5.476;2023-05-20T03:24:47;102370.16;;;11.88;65.17
72921;BME280;61064;51.654;5.476;2023-05-20T03:27:13;102364.78;;;11.85;65.64
72921;BME280;61064;51.654;5.476;2023-05-20T03:29:38;102379.88;;;11.84;65.70
72921;BME280;61064;51.654;5.476;2023-05-20T03:32:03;102376.22;;;11.81;65.80
72921;BME280;61064;51.654;5.476;2023-05-20T03:34:29;102376.22;;;11.81;66.01
72921;BME280;61064;51.654;5.476;2023-05-20T03:36:55;102376.22;;;11.81;65.81
72921;BME280;61064;51.654;5.476;2023-05-20T03:39:21;102386.00;;;11.80;66.00
72921;BME280;61064;51.654;5.476;2023-05-20T03:41:47;102384.19;;;11.79;66.19
72921;BME280;61064;51.654;5.476;2023-05-20T03:44:12;102379.66;;;11.77;66.42
72921;BME280;61064;51.654;5.476;2023-05-20T03:46:37;102376.94;;;11.74;66.36
72921;BME280;61064;51.654;5.476;2023-05-20T03:49:03;102372.41;;;11.73;66.55
72921;BME280;61064;51.654;5.476;2023-05-20T03:51:29;102377.75;;;11.73;66.58
72921;BME280;61064;51.654;5.476;2023-05-20T03:53:55;102374.19;;;11.72;66.61
72921;BME280;61064;51.654;5.476;2023-05-20T03:56:20;102383.03;;;11.71;66.51
72921;BME280;61064;51.654;5.476;2023-05-20T03:58:46;102372.38;;;11.71;66.72
72921;BME280;61064;51.654;5.476;2023-05-20T04:01:12;102369.69;;;11.70;66.73
72921;BME280;61064;51.654;5.476;2023-05-20T04:03:39;102371.44;;;11.69;66.91
72921;BME280;61064;51.654;5.476;2023-05-20T04:06:06;102366.06;;;11.67;66.94
72921;BME280;61064;51.654;5.476;2023-05-20T04:08:31;102380.25;;;11.66;66.94
72921;BME280;61064;51.654;5.476;2023-05-20T04:10:56;102371.41;;;11.67;66.95
72921;BME280;61064;51.654;5.476;2023-05-20T04:13:26;102375.88;;;11.68;67.29
72921;BME280;61064;51.654;5.476;2023-05-20T04:15:51;102373.16;;;11.67;67.32
72921;BME280;61064;51.654;5.476;2023-05-20T04:18:17;102373.09;;;11.65;67.41
72921;BME280;61064;51.654;5.476;2023-05-20T04:20:42;102374.91;;;11.66;67.58
72921;BME280;61064;51.654;5.476;2023-05-20T04:23:09;102365.13;;;11.65;67.58
72921;BME280;61064;51.654;5.476;2023-05-20T04:25:34;102374.97;;;11.68;67.61
72921;BME280;61064;51.654;5.476;2023-05-20T04:28:00;102368.69;;;11.66;67.68
72921;BME280;61064;51.654;5.476;2023-05-20T04:30:25;102370.53;;;11.68;67.45
72921;BME280;61064;51.654;5.476;2023-05-20T04:32:51;102371.44;;;11.69;67.99
72921;BME280;61064;51.654;5.476;2023-05-20T04:35:17;102375.88;;;11.68;67.95
72921;BME280;61064;51.654;5.476;2023-05-20T04:37:43;102376.72;;;11.67;68.15
72921;BME280;61064;51.654;5.476;2023-05-20T04:40:17;102378.59;;;11.72;67.98
72921;BME280;61064;51.654;5.476;2023-05-20T04:42:43;102376.03;;;11.73;68.06
72921;BME280;61064;51.654;5.476;2023-05-20T04:45:14;102358.31;;;11.75;68.22
72921;BME280;61064;51.654;5.476;2023-05-20T04:47:40;102368.06;;;11.75;68.20
72921;BME280;61064;51.654;5.476;2023-05-20T04:50:09;102368.13;;;11.78;68.21
72921;BME280;61064;51.654;5.476;2023-05-20T04:52:36;102376.19;;;11.79;68.27
72921;BME280;61064;51.654;5.476;2023-05-20T04:55:02;102384.25;;;11.81;68.36
72921;BME280;61064;51.654;5.476;2023-05-20T04:57:28;102394.00;;;11.82;68.74
72921;BME280;61064;51.654;5.476;2023-05-20T04:59:53;102391.44;;;11.85;68.59
72921;BME280;61064;51.654;5.476;2023-05-20T05:02:23;102381.75;;;11.88;68.58
72921;BME280;61064;51.654;5.476;2023-05-20T05:04:48;102373.78;;;11.90;68.72
72921;BME280;61064;51.654;5.476;2023-05-20T05:07:13;102374.81;;;11.95;68.63
72921;BME280;61064;51.654;5.476;2023-05-20T05:09:39;102372.22;;;11.98;68.66
72921;BME280;61064;51.654;5.476;2023-05-20T05:12:05;102372.25;;;11.99;68.79
72921;BME280;61064;51.654;5.476;2023-05-20T05:14:30;102374.16;;;12.03;68.75
72921;BME280;61064;51.654;5.476;2023-05-20T05:16:55;102365.34;;;12.07;68.78
72921;BME280;61064;51.654;5.476;2023-05-20T05:19:21;102371.75;;;12.14;68.90
72921;BME280;61064;51.654;5.476;2023-05-20T05:21:46;102364.69;;;12.18;68.82
72921;BME280;61064;51.654;5.476;2023-05-20T05:24:12;102369.34;;;12.25;69.02
72921;BME280;61064;51.654;5.476;2023-05-20T05:26:37;102365.91;;;12.30;68.98
72921;BME280;61064;51.654;5.476;2023-05-20T05:29:03;102370.53;;;12.39;69.10
72921;BME280;61064;51.654;5.476;2023-05-20T05:31:28;102360.06;;;12.46;68.84
72921;BME280;61064;51.654;5.476;2023-05-20T05:33:54;102346.00;;;12.54;68.80
72921;BME280;61064;51.654;5.476;2023-05-20T05:36:19;102341.84;;;12.68;68.78
72921;BME280;61064;51.654;5.476;2023-05-20T05:38:44;102356.38;;;12.82;68.66
72921;BME280;61064;51.654;5.476;2023-05-20T05:41:10;102354.97;;;12.99;68.41
72921;BME280;61064;51.654;5.476;2023-05-20T05:43:35;102349.06;;;13.14;68.11
72921;BME280;61064;51.654;5.476;2023-05-20T05:46:00;102352.09;;;13.30;68.01
72921;BME280;61064;51.654;5.476;2023-05-20T05:48:26;102359.56;;;13.50;67.74
72921;BME280;61064;51.654;5.476;2023-05-20T05:50:52;102358.13;;;13.68;67.41
72921;BME280;61064;51.654;5.476;2023-05-20T05:53:17;102356.59;;;13.83;67.35
72921;BME280;61064;51.654;5.476;2023-05-20T05:55:45;102351.50;;;13.99;66.97
72921;BME280;61064;51.654;5.476;2023-05-20T05:58:10;102356.25;;;14.14;66.62
72921;BME280;61064;51.654;5.476;2023-05-20T06:00:36;102354.63;;;14.27;66.42
72921;BME280;61064;51.654;5.476;2023-05-20T06:03:01;102343.25;;;14.38;66.23
72921;BME280;61064;51.654;5.476;2023-05-20T06:05:27;102347.03;;;14.52;65.92
72921;BME280;61064;51.654;5.476;2023-05-20T06:07:52;102349.88;;;14.65;65.75
72921;BME280;61064;51.654;5.476;2023-05-20T06:10:17;102348.31;;;14.80;65.56
72921;BME280;61064;51.654;5.476;2023-05-20T06:12:43;102341.34;;;14.96;65.41
72921;BME280;61064;51.654;5.476;2023-05-20T06:15:09;102345.09;;;15.09;65.22
72921;BME280;61064;51.654;5.476;2023-05-20T06:17:34;102344.38;;;15.25;64.71
72921;BME280;61064;51.654;5.476;2023-05-20T06:19:59;102349.84;;;15.34;64.42
72921;BME280;61064;51.654;5.476;2023-05-20T06:22:25;102342.84;;;15.47;64.22
72921;BME280;61064;51.654;5.476;2023-05-20T06:24:52;102334.97;;;15.62;64.09
72921;BME280;61064;51.654;5.476;2023-05-20T06:27:18;102330.59;;;15.73;63.83
72921;BME280;61064;51.654;5.476;2023-05-20T06:29:43;102333.38;;;15.85;63.58
72921;BME280;61064;51.654;5.476;2023-05-20T06:32:09;102321.84;;;15.95;63.20
72921;BME280;61064;51.654;5.476;2023-05-20T06:34:34;102325.53;;;16.08;62.77
72921;BME280;61064;51.654;5.476;2023-05-20T06:36:59;102322.03;;;16.21;62.48
72921;BME280;61064;51.654;5.476;2023-05-20T06:39:25;102314.97;;;16.32;62.43
72921;BME280;61064;51.654;5.476;2023-05-20T06:41:50;102310.53;;;16.46;62.13
72921;BME280;61064;51.654;5.476;2023-05-20T06:44:18;102308.88;;;16.59;61.98
72921;BME280;61064;51.654;5.476;2023-05-20T06:46:44;102306.25;;;16.76;61.84
72921;BME280;61064;51.654;5.476;2023-05-20T06:49:09;102306.28;;;16.83;61.17
72921;BME280;61064;51.654;5.476;2023-05-20T06:51:34;102310.78;;;16.90;60.72
72921;BME280;61064;51.654;5.476;2023-05-20T06:54:00;102300.09;;;16.99;60.65
72921;BME280;61064;51.654;5.476;2023-05-20T06:56:25;102302.78;;;17.12;60.59
72921;BME280;61064;51.654;5.476;2023-05-20T06:58:51;102306.44;;;17.27;60.14
72921;BME280;61064;51.654;5.476;2023-05-20T07:01:16;102305.53;;;17.40;59.97
72921;BME280;61064;51.654;5.476;2023-05-20T07:03:42;102307.38;;;17.55;59.75
72921;BME280;61064;51.654;5.476;2023-05-20T07:06:08;102295.72;;;17.67;59.27
72921;BME280;61064;51.654;5.476;2023-05-20T07:08:33;102297.53;;;17.84;59.24
72921;BME280;61064;51.654;5.476;2023-05-20T07:10:59;102293.03;;;17.96;58.65
72921;BME280;61064;51.654;5.476;2023-05-20T07:13:24;102285.88;;;18.05;58.39
72921;BME280;61064;51.654;5.476;2023-05-20T07:15:50;102284.03;;;18.12;57.93
72921;BME280;61064;51.654;5.476;2023-05-20T07:18:16;102287.63;;;18.18;57.66
72921;BME280;61064;51.654;5.476;2023-05-20T07:20:43;102292.09;;;18.25;57.05
72921;BME280;61064;51.654;5.476;2023-05-20T07:23:09;102281.31;;;18.32;56.98
72921;BME280;61064;51.654;5.476;2023-05-20T07:25:34;102278.59;;;18.44;56.94
72921;BME280;61064;51.654;5.476;2023-05-20T07:27:59;102285.75;;;18.54;56.42
72921;BME280;61064;51.654;5.476;2023-05-20T07:30:25;102273.16;;;18.62;56.27
72921;BME280;61064;51.654;5.476;2023-05-20T07:32:51;102273.13;;;18.71;55.73
72921;BME280;61064;51.654;5.476;2023-05-20T07:35:16;102273.09;;;18.76;55.61
72921;BME280;61064;51.654;5.476;2023-05-20T07:37:42;102281.16;;;18.82;55.47
72921;BME280;61064;51.654;5.476;2023-05-20T07:40:08;102286.53;;;18.88;54.96
72921;BME280;61064;51.654;5.476;2023-05-20T07:42:33;102276.66;;;18.88;54.62
72921;BME280;61064;51.654;5.476;2023-05-20T07:44:59;102269.38;;;18.96;54.82
72921;BME280;61064;51.654;5.476;2023-05-20T07:47:24;102267.50;;;19.15;54.60
72921;BME280;61064;51.654;5.476;2023-05-20T07:49:50;102266.47;;;19.31;53.99
72921;BME280;61064;51.654;5.476;2023-05-20T07:52:15;102264.63;;;19.38;53.55
72921;BME280;61064;51.654;5.476;2023-05-20T07:54:41;102268.19;;;19.47;53.76
72921;BME280;61064;51.654;5.476;2023-05-20T07:57:07;102268.16;;;19.54;53.07
72921;BME280;61064;51.654;5.476;2023-05-20T07:59:32;102263.66;;;19.54;52.84
72921;BME280;61064;51.654;5.476;2023-05-20T08:01:58;102265.44;;;19.54;52.60
72921;BME280;61064;51.654;5.476;2023-05-20T08:04:23;102269.00;;;19.59;52.55
72921;BME280;61064;51.654;5.476;2023-05-20T08:06:51;102255.41;;;19.68;52.21
72921;BME280;61064;51.654;5.476;2023-05-20T08:09:17;102257.16;;;19.73;52.26
72921;BME280;61064;51.654;5.476;2023-05-20T08:11:43;102244.47;;;19.84;51.89
72921;BME280;61064;51.654;5.476;2023-05-20T08:14:08;102253.41;;;19.89;51.67
72921;BME280;61064;51.654;5.476;2023-05-20T08:16:35;102247.03;;;19.97;51.29
72921;BME280;61064;51.654;5.476;2023-05-20T08:19:00;102244.34;;;19.97;50.91
72921;BME280;61064;51.654;5.476;2023-05-20T08:21:25;102238.00;;;20.01;51.06
72921;BME280;61064;51.654;5.476;2023-05-20T08:23:51;102249.69;;;20.04;50.68
72921;BME280;61064;51.654;5.476;2023-05-20T08:26:16;102230.75;;;20.06;50.43
72921;BME280;61064;51.654;5.476;2023-05-20T08:28:42;102242.38;;;20.12;50.33
72921;BME280;61064;51.654;5.476;2023-05-20T08:31:07;102239.66;;;20.17;49.76
72921;BME280;61064;51.654;5.476;2023-05-20T08:33:33;102234.19;;;20.20;50.07
72921;BME280;61064;51.654;5.476;2023-05-20T08:35:59;102232.28;;;20.32;49.83
72921;BME280;61064;51.654;5.476;2023-05-20T08:38:25;102235.72;;;20.45;50.03
72921;BME280;61064;51.654;5.476;2023-05-20T08:40:52;102227.44;;;20.59;49.32
72921;BME280;61064;51.654;5.476;2023-05-20T08:43:18;102233.69;;;20.65;48.87
72921;BME280;61064;51.654;5.476;2023-05-20T08:45:43;102227.31;;;20.69;48.55
72921;BME280;61064;51.654;5.476;2023-05-20T08:48:09;102222.88;;;20.62;48.45
72921;BME280;61064;51.654;5.476;2023-05-20T08:50:34;102232.78;;;20.63;48.51
72921;BME280;61064;51.654;5.476;2023-05-20T08:53:00;102216.50;;;20.68;48.29
72921;BME280;61064;51.654;5.476;2023-05-20T08:55:42;102227.22;;;20.77;47.66
72921;BME280;61064;51.654;5.476;2023-05-20T08:58:08;102226.16;;;20.87;47.73
72921;BME280;61064;51.654;5.476;2023-05-20T09:00:34;102227.00;;;20.91;47.68
72921;BME280;61064;51.654;5.476;2023-05-20T09:02:59;102217.00;;;20.96;47.42
72921;BME280;61064;51.654;5.476;2023-05-20T09:05:25;102223.28;;;21.01;47.45
72921;BME280;61064;51.654;5.476;2023-05-20T09:07:51;102215.09;;;21.04;47.66
72921;BME280;61064;51.654;5.476;2023-05-20T09:10:18;102207.69;;;21.18;47.14
72921;BME280;61064;51.654;5.476;2023-05-20T09:12:44;102213.97;;;21.22;46.97
72921;BME280;61064;51.654;5.476;2023-05-20T09:15:10;102205.69;;;21.29;46.91
72921;BME280;61064;51.654;5.476;2023-05-20T09:17:36;102206.47;;;21.37;46.26
72921;BME280;61064;51.654;5.476;2023-05-20T09:20:06;102201.88;;;21.42;46.44
72921;BME280;61064;51.654;5.476;2023-05-20T09:22:33;102195.44;;;21.49;46.23
72921;BME280;61064;51.654;5.476;2023-05-20T09:24:58;102203.56;;;21.49;46.13
72921;BME280;61064;51.654;5.476;2023-05-20T09:27:23;102204.41;;;21.51;46.04
72921;BME280;61064;51.654;5.476;2023-05-20T09:29:49;102195.28;;;21.58;46.14
72921;BME280;61064;51.654;5.476;2023-05-20T09:32:16;102221.13;;;21.78;45.65
72921;BME280;61064;51.654;5.476;2023-05-20T09:34:42;102195.69;;;21.85;45.21
72921;BME280;61064;51.654;5.476;2023-05-20T09:37:09;102199.25;;;21.88;44.81
72921;BME280;61064;51.654;5.476;2023-05-20T09:39:54;102194.75;;;21.87;45.23
72921;BME280;61064;51.654;5.476;2023-05-20T09:42:32;102190.97;;;21.97;44.94
72921;BME280;61064;51.654;5.476;2023-05-20T09:45:00;102193.53;;;22.05;44.58
72921;BME280;61064;51.654;5.476;2023-05-20T09:47:28;102193.59;;;22.02;44.36
72921;BME280;61064;51.654;5.476;2023-05-20T09:49:54;102183.72;;;21.98;44.35
72921;BME280;61064;51.654;5.476;2023-05-20T09:52:21;102189.06;;;22.03;44.20
72921;BME280;61064;51.654;5.476;2023-05-20T09:54:48;102192.56;;;22.08;44.27
72921;BME280;61064;51.654;5.476;2023-05-20T09:57:14;102193.19;;;22.22;43.90
72921;BME280;61064;51.654;5.476;2023-05-20T09:59:40;102192.22;;;22.26;43.94
72921;BME280;61064;51.654;5.476;2023-05-20T10:02:09;102187.81;;;22.20;43.48
72921;BME280;61064;51.654;5.476;2023-05-20T10:04:37;102188.00;;;22.11;43.64
72921;BME280;61064;51.654;5.476;2023-05-20T10:07:19;102178.94;;;22.12;43.97
72921;BME280;61064;51.654;5.476;2023-05-20T10:12:28;102182.78;;;22.45;43.54
72921;BME280;61064;51.654;5.476;2023-05-20T10:18:13;102167.63;;;22.76;43.26
72921;BME280;61064;51.654;5.476;2023-05-20T10:20:49;102151.13;;;22.86;43.04
72921;BME280;61064;51.654;5.476;2023-05-20T10:23:22;102179.03;;;22.91;43.07
72921;BME280;61064;51.654;5.476;2023-05-20T10:25:52;102173.31;;;23.03;42.67
72921;BME280;61064;51.654;5.476;2023-05-20T10:30:53;102150.81;;;22.99;42.57
72921;BME280;61064;51.654;5.476;2023-05-20T10:33:19;102143.81;;;22.89;42.24
72921;BME280;61064;51.654;5.476;2023-05-20T10:35:50;102156.75;;;22.78;42.27
72921;BME280;61064;51.654;5.476;2023-05-20T10:38:16;102151.03;;;22.90;42.43
72921;BME280;61064;51.654;5.476;2023-05-20T10:40:42;102138.19;;;22.97;42.25
72921;BME280;61064;51.654;5.476;2023-05-20T10:43:32;102142.50;;;23.05;42.58
72921;BME280;61064;51.654;5.476;2023-05-20T10:45:57;102153.13;;;23.14;42.08
72921;BME280;61064;51.654;5.476;2023-05-20T10:48:28;102126.41;;;22.98;41.77
72921;BME280;61064;51.654;5.476;2023-05-20T10:50:55;102128.16;;;23.00;41.84
72921;BME280;61064;51.654;5.476;2023-05-20T10:53:25;102125.56;;;22.96;41.75
72921;BME280;61064;51.654;5.476;2023-05-20T10:55:52;102123.97;;;22.86;41.55
72921;BME280;61064;51.654;5.476;2023-05-20T10:58:20;102126.81;;;22.81;42.10
72921;BME280;61064;51.654;5.476;2023-05-20T11:00:51;102122.13;;;22.88;42.21
72921;BME280;61064;51.654;5.476;2023-05-20T11:03:25;102131.97;;;22.92;42.03
72921;BME280;61064;51.654;5.476;2023-05-20T11:05:51;102114.78;;;22.91;42.23
72921;BME280;61064;51.654;5.476;2023-05-20T11:08:26;102119.75;;;23.11;41.97
72921;BME280;61064;51.654;5.476;2023-05-20T11:10:57;102123.97;;;23.23;41.51
72921;BME280;61064;51.654;5.476;2023-05-20T11:13:24;102116.75;;;23.21;41.76
72921;BME280;61064;51.654;5.476;2023-05-20T11:15:52;102111.66;;;23.43;41.75
72921;BME280;61064;51.654;5.476;2023-05-20T11:18:19;102092.47;;;23.51;41.40
72921;BME280;61064;51.654;5.476;2023-05-20T11:20:59;102106.50;;;23.67;41.52
72921;BME280;61064;51.654;5.476;2023-05-20T11:23:29;102105.94;;;23.86;40.75
72921;BME280;61064;51.654;5.476;2023-05-20T11:25:57;102091.13;;;23.96;40.55
72921;BME280;61064;51.654;5.476;2023-05-20T11:28:26;102099.25;;;23.98;40.48
72921;BME280;61064;51.654;5.476;2023-05-20T11:30:55;102097.75;;;23.88;40.45
72921;BME280;61064;51.654;5.476;2023-05-20T11:33:24;102079.25;;;23.70;40.62
72921;BME280;61064;51.654;5.476;2023-05-20T11:35:51;102082.06;;;23.67;41.10
72921;BME280;61064;51.654;5.476;2023-05-20T11:38:18;102079.38;;;23.65;40.56
72921;BME280;61064;51.654;5.476;2023-05-20T11:40:54;102094.13;;;23.56;40.82
72921;BME280;61064;51.654;5.476;2023-05-20T11:43:21;102078.81;;;23.52;40.77
72921;BME280;61064;51.654;5.476;2023-05-20T11:45:52;102080.84;;;23.46;40.52
72921;BME280;61064;51.654;5.476;2023-05-20T11:48:19;102084.03;;;23.26;40.29
72921;BME280;61064;51.654;5.476;2023-05-20T11:50:46;102080.06;;;23.05;40.87
72921;BME280;61064;51.654;5.476;2023-05-20T11:53:19;102106.34;;;23.03;41.04
72921;BME280;61064;51.654;5.476;2023-05-20T11:55:56;102082.34;;;22.87;40.99
72921;BME280;61064;51.654;5.476;2023-05-20T11:58:23;102086.81;;;22.89;41.23
72921;BME280;61064;51.654;5.476;2023-05-20T12:00:52;102066.28;;;22.77;41.10
72921;BME280;61064;51.654;5.476;2023-05-20T12:03:17;102082.50;;;22.80;41.85
72921;BME280;61064;51.654;5.476;2023-05-20T12:05:43;102069.50;;;22.93;41.60
72921;BME280;61064;51.654;5.476;2023-05-20T12:08:09;102062.09;;;23.01;41.18
72921;BME280;61064;51.654;5.476;2023-05-20T12:10:34;102076.44;;;23.06;41.27
72921;BME280;61064;51.654;5.476;2023-05-20T12:13:03;102080.59;;;23.19;41.24
72921;BME280;61064;51.654;5.476;2023-05-20T12:15:39;102051.72;;;23.17;41.02
72921;BME280;61064;51.654;5.476;2023-05-20T12:18:04;102059.69;;;23.23;40.98
72921;BME280;61064;51.654;5.476;2023-05-20T12:20:30;102052.34;;;23.27;41.07
72921;BME280;61064;51.654;5.476;2023-05-20T12:22:58;102053.19;;;23.29;41.28
72921;BME280;61064;51.654;5.476;2023-05-20T12:25:24;102068.50;;;23.31;40.96
72921;BME280;61064;51.654;5.476;2023-05-20T12:27:50;102047.59;;;23.35;41.12
72921;BME280;61064;51.654;5.476;2023-05-20T12:30:18;102038.75;;;23.27;41.06
72921;BME280;61064;51.654;5.476;2023-05-20T12:32:44;102035.88;;;23.33;41.10
72921;BME280;61064;51.654;5.476;2023-05-20T12:35:10;102060.81;;;23.48;41.48
72921;BME280;61064;51.654;5.476;2023-05-20T12:37:37;102039.03;;;23.51;41.18
72921;BME280;61064;51.654;5.476;2023-05-20T12:40:03;102053.47;;;23.52;40.96
72921;BME280;61064;51.654;5.476;2023-05-20T12:42:38;102053.75;;;23.41;41.09
72921;BME280;61064;51.654;5.476;2023-05-20T12:45:05;102050.41;;;23.30;41.21
72921;BME280;61064;51.654;5.476;2023-05-20T12:47:31;102046.19;;;23.20;41.41
72921;BME280;61064;51.654;5.476;2023-05-20T12:49:57;102056.41;;;23.10;41.56
72921;BME280;61064;51.654;5.476;2023-05-20T12:52:23;102047.53;;;23.04;42.04
72921;BME280;61064;51.654;5.476;2023-05-20T12:54:48;102054.63;;;23.09;41.95
72921;BME280;61064;51.654;5.476;2023-05-20T12:57:13;102055.47;;;23.11;41.60